Elbow Lake, MN (56531)

8:39 PM CDT on June 02, 2015 (GMT -0500)
Elbow Lake | | Change Station
CLOSE
Current Station
Airport
Location: Elbow Lake,
Elevation: 1204 ft
Nearby Weather Stations

Elev 1204 ft 45.99 °N, 95.99 °W | Updated 4 minutes ago

Overcast
Overcast
74 °F
Feels Like 74 °F
N
13
Wind Variable Wind from SSE

Today
High -- | Low -- °F
--% Chance of Precip.
Yesterday
High -- | Low -- °F
Precip. -- in
5:36 AM 9:07 PM
Full, 100% visible
Pressure 29.77 in
Visibility 10.0 miles
Clouds Overcast 6000 ft
Dew Point 59 °F
Humidity 58%
Rainfall 0.00 in
Snow Depth Not available.
UV 0 out of 12
Pollen 8.00 out of 12
Air Quality Not available.
Flu Activity Sporadic
METAR KY63 030135Z AUTO 15011KT 10SM OVC060 23/15 A2977 RMK AO2 T02340148

More Conditions Fewer Conditions

Pressure 29.77 in
Visibility 10.0 miles
Clouds Overcast 6000 ft
Dew Point 59 °F
Humidity 58%
Rainfall 0.00 in
Snow Depth Not available.
UV 0 out of 12
Pollen 8.00 out of 12
Air Quality Not available.
Flu Activity Sporadic
METAR KY63 030135Z AUTO 15011KT 10SM OVC060 23/15 A2977 RMK AO2 T02340148

More Conditions Fewer Conditions

10-Day Weather Forecast

×

Almanac

Astronomy

Jun. 02, 2015 Rise Set
Actual Time
Civil Twilight
Nautical Twilight
Astronomical Twilight
Moon
Length of Visible Light
Length of Day
Tomorrow will be .
, % of the Moon is Illuminated

Today's Extremes

State Highs State Lows

Community

WunderPhotos

Upload Photos

1,826,095 photos uploaded!

WunderBlogs® & News

Nearby

Air Quality

  Air Quality AQ Index Pollutant
Not available.

Snow Depth

Station Depth Elevation

Earthquake Activity

City Distance Mag. Time & Date
Minimum magnitude displayed is 2.5.

Coastal Water Temperatures

Place Temperature

Stations

Nearby Weather Stations

Station Location Temp. Windchill Dew Point Humidity Wind Precip. Elev Updated Type